sensor_id;sensor_type;location;lat;lon;timestamp;temperature;humidity
69595;DHT22;56800;52.142;5.364;2022-10-12T00:01:59;10.80;72.30
69595;DHT22;56800;52.142;5.364;2022-10-12T00:04:26;10.80;72.30
69595;DHT22;56800;52.142;5.364;2022-10-12T00:06:52;10.80;72.30
69595;DHT22;56800;52.142;5.364;2022-10-12T00:09:19;10.70;72.40
69595;DHT22;56800;52.142;5.364;2022-10-12T00:11:46;10.70;72.50
69595;DHT22;56800;52.142;5.364;2022-10-12T00:14:12;10.70;72.50
69595;DHT22;56800;52.142;5.364;2022-10-12T00:16:39;10.70;72.50
69595;DHT22;56800;52.142;5.364;2022-10-12T00:19:06;10.60;72.40
69595;DHT22;56800;52.142;5.364;2022-10-12T00:21:32;10.60;72.50
69595;DHT22;56800;52.142;5.364;2022-10-12T00:24:00;10.60;72.50
69595;DHT22;56800;52.142;5.364;2022-10-12T00:26:28;10.60;72.60
69595;DHT22;56800;52.142;5.364;2022-10-12T00:28:59;10.50;72.60
69595;DHT22;56800;52.142;5.364;2022-10-12T00:31:27;10.50;72.70
69595;DHT22;56800;52.142;5.364;2022-10-12T00:33:57;10.50;72.70
69595;DHT22;56800;52.142;5.364;2022-10-12T00:36:27;10.50;72.50
69595;DHT22;56800;52.142;5.364;2022-10-12T00:38:55;10.50;72.50
69595;DHT22;56800;52.142;5.364;2022-10-12T00:41:25;10.50;72.60
69595;DHT22;56800;52.142;5.364;2022-10-12T00:43:52;10.50;73.00
69595;DHT22;56800;52.142;5.364;2022-10-12T00:46:32;10.50;72.60
69595;DHT22;56800;52.142;5.364;2022-10-12T00:51:29;10.40;72.60
69595;DHT22;56800;52.142;5.364;2022-10-12T00:54:00;10.40;72.70
69595;DHT22;56800;52.142;5.364;2022-10-12T00:56:30;10.40;72.80
69595;DHT22;56800;52.142;5.364;2022-10-12T00:59:03;10.30;72.80
69595;DHT22;56800;52.142;5.364;2022-10-12T01:01:32;10.30;73.00
69595;DHT22;56800;52.142;5.364;2022-10-12T01:04:00;10.30;73.10
69595;DHT22;56800;52.142;5.364;2022-10-12T01:06:28;10.30;73.10
69595;DHT22;56800;52.142;5.364;2022-10-12T01:08:55;10.20;73.20
69595;DHT22;56800;52.142;5.364;2022-10-12T01:11:23;10.20;73.30
69595;DHT22;56800;52.142;5.364;2022-10-12T01:13:50;10.10;73.30
69595;DHT22;56800;52.142;5.364;2022-10-12T01:16:42;10.20;73.40
69595;DHT22;56800;52.142;5.364;2022-10-12T01:19:50;10.20;73.50
69595;DHT22;56800;52.142;5.364;2022-10-12T01:22:24;10.10;73.60
69595;DHT22;56800;52.142;5.364;2022-10-12T01:27:53;10.10;73.60
69595;DHT22;56800;52.142;5.364;2022-10-12T01:30:25;10.10;73.60
69595;DHT22;56800;52.142;5.364;2022-10-12T01:41:22;10.00;73.70
69595;DHT22;56800;52.142;5.364;2022-10-12T01:43:51;10.00;73.80
69595;DHT22;56800;52.142;5.364;2022-10-12T01:48:46;10.00;73.70
69595;DHT22;56800;52.142;5.364;2022-10-12T01:52:09;10.00;73.80
69595;DHT22;56800;52.142;5.364;2022-10-12T01:57:20;9.90;73.90
69595;DHT22;56800;52.142;5.364;2022-10-12T02:00:02;9.90;74.00
69595;DHT22;56800;52.142;5.364;2022-10-12T02:05:12;9.80;74.10
69595;DHT22;56800;52.142;5.364;2022-10-12T02:07:52;9.70;74.20
69595;DHT22;56800;52.142;5.364;2022-10-12T02:10:25;9.80;74.30
69595;DHT22;56800;52.142;5.364;2022-10-12T02:12:53;9.70;74.30
69595;DHT22;56800;52.142;5.364;2022-10-12T02:15:23;9.70;74.40
69595;DHT22;56800;52.142;5.364;2022-10-12T02:17:52;9.60;74.50
69595;DHT22;56800;52.142;5.364;2022-10-12T02:20:21;9.60;74.50
69595;DHT22;56800;52.142;5.364;2022-10-12T02:22:50;9.60;74.50
69595;DHT22;56800;52.142;5.364;2022-10-12T02:25:22;9.60;74.60
69595;DHT22;56800;52.142;5.364;2022-10-12T02:27:59;9.60;74.70
69595;DHT22;56800;52.142;5.364;2022-10-12T02:30:31;9.60;74.70
69595;DHT22;56800;52.142;5.364;2022-10-12T02:33:24;9.50;74.70
69595;DHT22;56800;52.142;5.364;2022-10-12T02:36:00;9.50;74.70
69595;DHT22;56800;52.142;5.364;2022-10-12T02:38:31;9.60;74.70
69595;DHT22;56800;52.142;5.364;2022-10-12T02:41:03;9.50;74.70
69595;DHT22;56800;52.142;5.364;2022-10-12T02:43:37;9.50;74.60
69595;DHT22;56800;52.142;5.364;2022-10-12T02:46:07;9.50;74.50
69595;DHT22;56800;52.142;5.364;2022-10-12T02:48:37;9.50;74.50
69595;DHT22;56800;52.142;5.364;2022-10-12T02:51:06;9.50;74.80
69595;DHT22;56800;52.142;5.364;2022-10-12T02:53:34;9.50;74.50
69595;DHT22;56800;52.142;5.364;2022-10-12T02:56:11;9.50;74.50
69595;DHT22;56800;52.142;5.364;2022-10-12T02:58:38;9.50;74.60
69595;DHT22;56800;52.142;5.364;2022-10-12T03:01:04;9.40;74.70
69595;DHT22;56800;52.142;5.364;2022-10-12T03:03:31;9.50;74.80
69595;DHT22;56800;52.142;5.364;2022-10-12T03:05:58;9.40;74.60
69595;DHT22;56800;52.142;5.364;2022-10-12T03:08:24;9.40;74.60
69595;DHT22;56800;52.142;5.364;2022-10-12T03:10:51;9.40;74.70
69595;DHT22;56800;52.142;5.364;2022-10-12T03:13:18;9.30;74.70
69595;DHT22;56800;52.142;5.364;2022-10-12T03:15:44;9.30;74.80
69595;DHT22;56800;52.142;5.364;2022-10-12T03:18:11;9.20;74.80
69595;DHT22;56800;52.142;5.364;2022-10-12T03:20:38;9.20;74.80
69595;DHT22;56800;52.142;5.364;2022-10-12T03:23:04;9.20;74.80
69595;DHT22;56800;52.142;5.364;2022-10-12T03:25:31;9.20;74.80
69595;DHT22;56800;52.142;5.364;2022-10-12T03:27:58;9.20;74.80
69595;DHT22;56800;52.142;5.364;2022-10-12T03:30:25;9.20;74.80
69595;DHT22;56800;52.142;5.364;2022-10-12T03:32:52;9.20;74.80
69595;DHT22;56800;52.142;5.364;2022-10-12T03:35:18;9.20;74.70
69595;DHT22;56800;52.142;5.364;2022-10-12T03:37:45;9.20;74.70
69595;DHT22;56800;52.142;5.364;2022-10-12T03:40:12;9.20;74.70
69595;DHT22;56800;52.142;5.364;2022-10-12T03:42:38;9.20;74.70
69595;DHT22;56800;52.142;5.364;2022-10-12T03:45:05;9.20;74.80
69595;DHT22;56800;52.142;5.364;2022-10-12T03:47:32;9.20;74.80
69595;DHT22;56800;52.142;5.364;2022-10-12T03:49:58;9.20;75.40
69595;DHT22;56800;52.142;5.364;2022-10-12T03:52:25;9.20;74.90
69595;DHT22;56800;52.142;5.364;2022-10-12T03:54:52;9.30;74.90
69595;DHT22;56800;52.142;5.364;2022-10-12T03:57:18;9.20;74.90
69595;DHT22;56800;52.142;5.364;2022-10-12T03:59:45;9.20;74.90
69595;DHT22;56800;52.142;5.364;2022-10-12T04:02:11;9.20;74.90
69595;DHT22;56800;52.142;5.364;2022-10-12T04:04:42;9.20;75.00
69595;DHT22;56800;52.142;5.364;2022-10-12T04:07:09;9.20;75.00
69595;DHT22;56800;52.142;5.364;2022-10-12T04:09:36;9.10;75.00
69595;DHT22;56800;52.142;5.364;2022-10-12T04:12:02;9.10;75.00
69595;DHT22;56800;52.142;5.364;2022-10-12T04:14:29;9.10;75.00
69595;DHT22;56800;52.142;5.364;2022-10-12T04:16:56;9.10;75.00
69595;DHT22;56800;52.142;5.364;2022-10-12T04:19:22;9.10;75.80
69595;DHT22;56800;52.142;5.364;2022-10-12T04:21:49;9.10;75.00
69595;DHT22;56800;52.142;5.364;2022-10-12T04:24:15;9.10;75.00
69595;DHT22;56800;52.142;5.364;2022-10-12T04:26:42;9.10;75.00
69595;DHT22;56800;52.142;5.364;2022-10-12T04:29:11;9.10;74.90
69595;DHT22;56800;52.142;5.364;2022-10-12T04:31:39;9.10;75.00
69595;DHT22;56800;52.142;5.364;2022-10-12T04:34:07;9.10;75.00
69595;DHT22;56800;52.142;5.364;2022-10-12T04:36:34;9.00;74.90
69595;DHT22;56800;52.142;5.364;2022-10-12T04:39:01;9.00;74.90
69595;DHT22;56800;52.142;5.364;2022-10-12T04:41:28;9.00;75.00
69595;DHT22;56800;52.142;5.364;2022-10-12T04:43:55;9.00;75.80
69595;DHT22;56800;52.142;5.364;2022-10-12T04:46:21;9.00;75.00
69595;DHT22;56800;52.142;5.364;2022-10-12T04:48:48;9.00;75.00
69595;DHT22;56800;52.142;5.364;2022-10-12T04:51:14;9.00;75.00
69595;DHT22;56800;52.142;5.364;2022-10-12T04:53:41;9.00;75.00
69595;DHT22;56800;52.142;5.364;2022-10-12T04:56:08;9.00;75.00
69595;DHT22;56800;52.142;5.364;2022-10-12T04:58:34;9.00;75.00
69595;DHT22;56800;52.142;5.364;2022-10-12T05:01:01;9.00;75.00
69595;DHT22;56800;52.142;5.364;2022-10-12T05:03:28;9.00;75.00
69595;DHT22;56800;52.142;5.364;2022-10-12T05:05:55;9.00;75.10
69595;DHT22;56800;52.142;5.364;2022-10-12T05:08:21;9.00;75.10
69595;DHT22;56800;52.142;5.364;2022-10-12T05:10:48;9.00;75.10
69595;DHT22;56800;52.142;5.364;2022-10-12T05:13:15;9.00;75.20
69595;DHT22;56800;52.142;5.364;2022-10-12T05:15:43;9.00;75.20
69595;DHT22;56800;52.142;5.364;2022-10-12T05:18:10;9.00;75.20
69595;DHT22;56800;52.142;5.364;2022-10-12T05:20:36;9.00;75.10
69595;DHT22;56800;52.142;5.364;2022-10-12T05:23:03;9.00;75.10
69595;DHT22;56800;52.142;5.364;2022-10-12T05:25:30;9.00;75.10
69595;DHT22;56800;52.142;5.364;2022-10-12T05:27:56;9.00;75.10
69595;DHT22;56800;52.142;5.364;2022-10-12T05:30:23;9.00;75.20
69595;DHT22;56800;52.142;5.364;2022-10-12T05:32:50;9.00;75.10
69595;DHT22;56800;52.142;5.364;2022-10-12T05:35:17;9.00;75.20
69595;DHT22;56800;52.142;5.364;2022-10-12T05:37:43;9.00;75.10
69595;DHT22;56800;52.142;5.364;2022-10-12T05:40:10;9.00;75.20
69595;DHT22;56800;52.142;5.364;2022-10-12T05:42:37;9.00;75.10
69595;DHT22;56800;52.142;5.364;2022-10-12T05:45:05;9.00;75.10
69595;DHT22;56800;52.142;5.364;2022-10-12T05:47:31;9.00;75.10
69595;DHT22;56800;52.142;5.364;2022-10-12T05:49:58;9.00;75.10
69595;DHT22;56800;52.142;5.364;2022-10-12T05:52:25;8.90;75.10
69595;DHT22;56800;52.142;5.364;2022-10-12T05:54:52;8.90;75.20
69595;DHT22;56800;52.142;5.364;2022-10-12T05:57:18;8.90;75.10
69595;DHT22;56800;52.142;5.364;2022-10-12T05:59:45;8.90;75.10
69595;DHT22;56800;52.142;5.364;2022-10-12T06:02:13;8.90;75.20
69595;DHT22;56800;52.142;5.364;2022-10-12T06:04:40;8.90;75.20
69595;DHT22;56800;52.142;5.364;2022-10-12T06:07:07;8.90;75.20
69595;DHT22;56800;52.142;5.364;2022-10-12T06:09:35;8.90;75.20
69595;DHT22;56800;52.142;5.364;2022-10-12T06:12:05;8.90;75.20
69595;DHT22;56800;52.142;5.364;2022-10-12T06:14:32;8.90;75.20
69595;DHT22;56800;52.142;5.364;2022-10-12T06:16:58;8.90;75.30
69595;DHT22;56800;52.142;5.364;2022-10-12T06:19:25;8.90;75.30
69595;DHT22;56800;52.142;5.364;2022-10-12T06:21:51;8.90;75.30
69595;DHT22;56800;52.142;5.364;2022-10-12T06:24:18;8.90;75.30
69595;DHT22;56800;52.142;5.364;2022-10-12T06:26:45;8.90;75.40
69595;DHT22;56800;52.142;5.364;2022-10-12T06:29:11;8.90;75.40
69595;DHT22;56800;52.142;5.364;2022-10-12T06:31:38;8.90;75.40
69595;DHT22;56800;52.142;5.364;2022-10-12T06:34:05;9.00;75.40
69595;DHT22;56800;52.142;5.364;2022-10-12T06:36:32;9.00;75.30
69595;DHT22;56800;52.142;5.364;2022-10-12T06:38:58;9.00;75.20
69595;DHT22;56800;52.142;5.364;2022-10-12T06:41:25;9.00;75.20
69595;DHT22;56800;52.142;5.364;2022-10-12T06:43:52;9.00;75.30
69595;DHT22;56800;52.142;5.364;2022-10-12T06:46:20;9.00;75.40
69595;DHT22;56800;52.142;5.364;2022-10-12T06:48:46;9.00;75.30
69595;DHT22;56800;52.142;5.364;2022-10-12T06:51:13;9.00;75.30
69595;DHT22;56800;52.142;5.364;2022-10-12T06:53:40;9.00;75.30
69595;DHT22;56800;52.142;5.364;2022-10-12T06:56:07;9.00;75.30
69595;DHT22;56800;52.142;5.364;2022-10-12T06:58:34;9.00;75.30
69595;DHT22;56800;52.142;5.364;2022-10-12T07:01:06;9.00;75.30
69595;DHT22;56800;52.142;5.364;2022-10-12T07:03:33;9.00;75.40
69595;DHT22;56800;52.142;5.364;2022-10-12T07:06:10;9.10;75.50
69595;DHT22;56800;52.142;5.364;2022-10-12T07:08:37;9.10;75.50
69595;DHT22;56800;52.142;5.364;2022-10-12T07:11:06;9.10;75.40
69595;DHT22;56800;52.142;5.364;2022-10-12T07:13:34;9.20;75.40
69595;DHT22;56800;52.142;5.364;2022-10-12T07:16:01;9.20;75.40
69595;DHT22;56800;52.142;5.364;2022-10-12T07:18:28;9.20;75.40
69595;DHT22;56800;52.142;5.364;2022-10-12T07:20:57;9.30;75.30
69595;DHT22;56800;52.142;5.364;2022-10-12T07:23:26;9.30;75.20
69595;DHT22;56800;52.142;5.364;2022-10-12T07:25:52;9.40;75.30
69595;DHT22;56800;52.142;5.364;2022-10-12T07:28:20;9.40;75.30
69595;DHT22;56800;52.142;5.364;2022-10-12T07:30:48;9.40;76.00
69595;DHT22;56800;52.142;5.364;2022-10-12T07:33:15;9.50;75.10
69595;DHT22;56800;52.142;5.364;2022-10-12T07:35:42;9.50;75.00
69595;DHT22;56800;52.142;5.364;2022-10-12T07:38:28;9.50;75.00
69595;DHT22;56800;52.142;5.364;2022-10-12T07:40:59;9.50;74.90
69595;DHT22;56800;52.142;5.364;2022-10-12T07:43:27;9.50;74.90
69595;DHT22;56800;52.142;5.364;2022-10-12T07:45:55;9.50;74.90
69595;DHT22;56800;52.142;5.364;2022-10-12T07:48:22;9.50;74.90
69595;DHT22;56800;52.142;5.364;2022-10-12T07:50:49;9.50;74.90
69595;DHT22;56800;52.142;5.364;2022-10-12T07:53:15;9.60;75.00
69595;DHT22;56800;52.142;5.364;2022-10-12T07:55:42;9.60;75.00
69595;DHT22;56800;52.142;5.364;2022-10-12T07:58:08;9.70;75.10
69595;DHT22;56800;52.142;5.364;2022-10-12T08:00:35;9.70;75.00
69595;DHT22;56800;52.142;5.364;2022-10-12T08:03:02;9.60;74.70
69595;DHT22;56800;52.142;5.364;2022-10-12T08:05:28;9.70;74.70
69595;DHT22;56800;52.142;5.364;2022-10-12T08:07:55;9.70;74.80
69595;DHT22;56800;52.142;5.364;2022-10-12T08:10:22;9.70;74.80
69595;DHT22;56800;52.142;5.364;2022-10-12T08:12:48;9.80;74.70
69595;DHT22;56800;52.142;5.364;2022-10-12T08:15:17;9.80;74.70
69595;DHT22;56800;52.142;5.364;2022-10-12T08:17:44;9.90;74.70
69595;DHT22;56800;52.142;5.364;2022-10-12T08:20:11;9.90;74.70
69595;DHT22;56800;52.142;5.364;2022-10-12T08:22:37;9.90;74.70
69595;DHT22;56800;52.142;5.364;2022-10-12T08:25:04;9.90;74.60
69595;DHT22;56800;52.142;5.364;2022-10-12T08:27:31;10.00;74.70
69595;DHT22;56800;52.142;5.364;2022-10-12T08:29:58;10.10;74.80
69595;DHT22;56800;52.142;5.364;2022-10-12T08:32:25;10.10;74.50
69595;DHT22;56800;52.142;5.364;2022-10-12T08:34:52;10.20;74.50
69595;DHT22;56800;52.142;5.364;2022-10-12T08:37:18;10.30;74.50
69595;DHT22;56800;52.142;5.364;2022-10-12T08:39:45;10.30;74.50
69595;DHT22;56800;52.142;5.364;2022-10-12T08:42:34;10.40;74.30
69595;DHT22;56800;52.142;5.364;2022-10-12T08:45:26;10.50;74.10
69595;DHT22;56800;52.142;5.364;2022-10-12T08:48:12;10.60;74.00
69595;DHT22;56800;52.142;5.364;2022-10-12T08:50:47;10.80;74.10
69595;DHT22;56800;52.142;5.364;2022-10-12T08:55:51;11.20;73.70
69595;DHT22;56800;52.142;5.364;2022-10-12T08:58:23;11.40;73.40
69595;DHT22;56800;52.142;5.364;2022-10-12T09:01:17;11.80;74.20
69595;DHT22;56800;52.142;5.364;2022-10-12T09:04:09;13.00;73.10
69595;DHT22;56800;52.142;5.364;2022-10-12T09:06:49;14.30;69.80
69595;DHT22;56800;52.142;5.364;2022-10-12T09:12:12;15.50;65.40
69595;DHT22;56800;52.142;5.364;2022-10-12T09:14:42;16.70;65.20
69595;DHT22;56800;52.142;5.364;2022-10-12T09:19:48;20.10;59.90
69595;DHT22;56800;52.142;5.364;2022-10-12T09:22:18;21.50;57.40
69595;DHT22;56800;52.142;5.364;2022-10-12T09:24:47;22.40;53.10
69595;DHT22;56800;52.142;5.364;2022-10-12T09:27:17;23.20;52.30
69595;DHT22;56800;52.142;5.364;2022-10-12T09:29:49;24.00;48.80
69595;DHT22;56800;52.142;5.364;2022-10-12T09:33:07;24.80;46.80
69595;DHT22;56800;52.142;5.364;2022-10-12T09:35:36;25.50;44.00
69595;DHT22;56800;52.142;5.364;2022-10-12T09:38:05;26.00;43.30
69595;DHT22;56800;52.142;5.364;2022-10-12T09:40:34;26.30;42.50
69595;DHT22;56800;52.142;5.364;2022-10-12T09:43:02;26.20;42.60
69595;DHT22;56800;52.142;5.364;2022-10-12T09:45:30;25.50;41.50
69595;DHT22;56800;52.142;5.364;2022-10-12T09:48:19;25.10;42.20
69595;DHT22;56800;52.142;5.364;2022-10-12T09:50:56;24.70;41.70
69595;DHT22;56800;52.142;5.364;2022-10-12T09:53:39;24.20;42.10
69595;DHT22;56800;52.142;5.364;2022-10-12T09:56:20;23.70;42.60
69595;DHT22;56800;52.142;5.364;2022-10-12T09:58:53;23.00;43.60
69595;DHT22;56800;52.142;5.364;2022-10-12T10:01:24;22.10;44.40
69595;DHT22;56800;52.142;5.364;2022-10-12T10:04:13;21.30;46.10
69595;DHT22;56800;52.142;5.364;2022-10-12T10:06:43;20.80;47.00
69595;DHT22;56800;52.142;5.364;2022-10-12T10:09:26;20.20;48.40
69595;DHT22;56800;52.142;5.364;2022-10-12T10:11:55;19.50;49.50
69595;DHT22;56800;52.142;5.364;2022-10-12T10:14:22;19.10;50.20
69595;DHT22;56800;52.142;5.364;2022-10-12T10:16:49;18.80;50.90
69595;DHT22;56800;52.142;5.364;2022-10-12T10:19:19;18.60;51.40
69595;DHT22;56800;52.142;5.364;2022-10-12T10:21:46;18.40;52.00
69595;DHT22;56800;52.142;5.364;2022-10-12T10:24:27;18.30;52.10
69595;DHT22;56800;52.142;5.364;2022-10-12T10:27:01;18.20;52.80
69595;DHT22;56800;52.142;5.364;2022-10-12T10:29:33;18.00;53.30
69595;DHT22;56800;52.142;5.364;2022-10-12T10:32:21;18.00;53.30
69595;DHT22;56800;52.142;5.364;2022-10-12T10:35:04;17.80;53.80
69595;DHT22;56800;52.142;5.364;2022-10-12T10:37:32;17.60;54.00
69595;DHT22;56800;52.142;5.364;2022-10-12T10:39:59;17.50;54.00
69595;DHT22;56800;52.142;5.364;2022-10-12T10:42:28;17.40;55.00
69595;DHT22;56800;52.142;5.364;2022-10-12T10:45:06;17.40;53.90
69595;DHT22;56800;52.142;5.364;2022-10-12T10:47:41;17.30;53.30
69595;DHT22;56800;52.142;5.364;2022-10-12T10:50:27;17.20;53.80
69595;DHT22;56800;52.142;5.364;2022-10-12T10:52:57;17.20;54.40
69595;DHT22;56800;52.142;5.364;2022-10-12T10:58:03;17.20;53.80
69595;DHT22;56800;52.142;5.364;2022-10-12T11:00:33;17.10;54.90
69595;DHT22;56800;52.142;5.364;2022-10-12T11:03:26;17.00;56.10
69595;DHT22;56800;52.142;5.364;2022-10-12T11:06:11;16.80;55.40
69595;DHT22;56800;52.142;5.364;2022-10-12T11:08:40;16.80;55.00
69595;DHT22;56800;52.142;5.364;2022-10-12T11:11:13;16.70;56.40
69595;DHT22;56800;52.142;5.364;2022-10-12T11:13:45;16.60;55.20
69595;DHT22;56800;52.142;5.364;2022-10-12T11:16:28;16.60;55.70
69595;DHT22;56800;52.142;5.364;2022-10-12T11:18:59;16.60;56.20
69595;DHT22;56800;52.142;5.364;2022-10-12T11:21:42;16.60;56.20
69595;DHT22;56800;52.142;5.364;2022-10-12T11:24:15;16.60;56.20
69595;DHT22;56800;52.142;5.364;2022-10-12T11:29:13;16.60;56.40
69595;DHT22;56800;52.142;5.364;2022-10-12T11:31:57;16.50;56.40
69595;DHT22;56800;52.142;5.364;2022-10-12T11:34:26;16.60;56.50
69595;DHT22;56800;52.142;5.364;2022-10-12T11:36:54;16.60;56.20
69595;DHT22;56800;52.142;5.364;2022-10-12T11:39:44;16.60;55.30
69595;DHT22;56800;52.142;5.364;2022-10-12T11:42:15;16.50;55.40
69595;DHT22;56800;52.142;5.364;2022-10-12T11:44:47;16.50;55.20
69595;DHT22;56800;52.142;5.364;2022-10-12T11:47:35;16.50;55.70
69595;DHT22;56800;52.142;5.364;2022-10-12T11:50:35;16.60;55.90
69595;DHT22;56800;52.142;5.364;2022-10-12T11:53:17;16.80;55.00
69595;DHT22;56800;52.142;5.364;2022-10-12T11:56:11;16.80;55.10
69595;DHT22;56800;52.142;5.364;2022-10-12T11:58:41;17.00;55.30
69595;DHT22;56800;52.142;5.364;2022-10-12T12:04:23;17.00;53.10
69595;DHT22;56800;52.142;5.364;2022-10-12T12:07:43;16.90;53.50
69595;DHT22;56800;52.142;5.364;2022-10-12T12:15:38;16.90;53.60
69595;DHT22;56800;52.142;5.364;2022-10-12T12:18:15;16.90;53.60
69595;DHT22;56800;52.142;5.364;2022-10-12T12:28:47;16.80;54.60
69595;DHT22;56800;52.142;5.364;2022-10-12T12:33:46;16.60;54.90
69595;DHT22;56800;52.142;5.364;2022-10-12T12:36:28;16.70;55.00
69595;DHT22;56800;52.142;5.364;2022-10-12T12:38:55;16.60;55.00
69595;DHT22;56800;52.142;5.364;2022-10-12T12:49:51;16.60;55.40
69595;DHT22;56800;52.142;5.364;2022-10-12T13:17:16;17.10;54.20
69595;DHT22;56800;52.142;5.364;2022-10-12T13:20:20;17.10;54.20
69595;DHT22;56800;52.142;5.364;2022-10-12T13:22:51;17.00;54.40
69595;DHT22;56800;52.142;5.364;2022-10-12T13:27:53;16.80;54.50
69595;DHT22;56800;52.142;5.364;2022-10-12T13:38:20;16.70;55.40
69595;DHT22;56800;52.142;5.364;2022-10-12T13:48:57;16.70;56.20
69595;DHT22;56800;52.142;5.364;2022-10-12T13:51:28;16.70;56.30
69595;DHT22;56800;52.142;5.364;2022-10-12T13:53:56;16.70;56.40
69595;DHT22;56800;52.142;5.364;2022-10-12T13:56:28;16.70;56.50
69595;DHT22;56800;52.142;5.364;2022-10-12T13:58:59;16.60;56.70
69595;DHT22;56800;52.142;5.364;2022-10-12T14:01:32;16.60;57.20
69595;DHT22;56800;52.142;5.364;2022-10-12T14:04:02;16.50;57.10
69595;DHT22;56800;52.142;5.364;2022-10-12T14:06:34;16.50;57.20
69595;DHT22;56800;52.142;5.364;2022-10-12T14:09:08;16.50;57.50
69595;DHT22;56800;52.142;5.364;2022-10-12T14:11:36;16.60;57.80
69595;DHT22;56800;52.142;5.364;2022-10-12T14:14:03;16.60;57.50
69595;DHT22;56800;52.142;5.364;2022-10-12T14:16:30;16.70;57.40
69595;DHT22;56800;52.142;5.364;2022-10-12T14:19:17;16.70;57.10
69595;DHT22;56800;52.142;5.364;2022-10-12T14:21:46;16.70;56.80
69595;DHT22;56800;52.142;5.364;2022-10-12T14:24:16;16.80;57.10
69595;DHT22;56800;52.142;5.364;2022-10-12T14:26:51;16.70;57.10
69595;DHT22;56800;52.142;5.364;2022-10-12T14:29:32;16.80;57.40
69595;DHT22;56800;52.142;5.364;2022-10-12T14:32:02;16.80;57.20
69595;DHT22;56800;52.142;5.364;2022-10-12T14:39:44;16.70;56.70
69595;DHT22;56800;52.142;5.364;2022-10-12T14:44:55;16.60;56.60
69595;DHT22;56800;52.142;5.364;2022-10-12T14:47:29;16.50;56.50
69595;DHT22;56800;52.142;5.364;2022-10-12T14:49:58;16.50;56.90
69595;DHT22;56800;52.142;5.364;2022-10-12T14:52:42;16.50;57.00
69595;DHT22;56800;52.142;5.364;2022-10-12T14:55:31;16.40;56.90
69595;DHT22;56800;52.142;5.364;2022-10-12T14:57:59;16.40;57.30
69595;DHT22;56800;52.142;5.364;2022-10-12T15:00:28;16.40;57.30
69595;DHT22;56800;52.142;5.364;2022-10-12T15:02:56;16.40;57.30
69595;DHT22;56800;52.142;5.364;2022-10-12T15:05:25;16.40;57.50
69595;DHT22;56800;52.142;5.364;2022-10-12T15:07:52;16.40;57.60
69595;DHT22;56800;52.142;5.364;2022-10-12T15:10:20;16.40;57.60
69595;DHT22;56800;52.142;5.364;2022-10-12T15:12:48;16.40;57.50
69595;DHT22;56800;52.142;5.364;2022-10-12T15:15:46;16.40;57.70
69595;DHT22;56800;52.142;5.364;2022-10-12T15:18:13;16.40;58.00
69595;DHT22;56800;52.142;5.364;2022-10-12T15:20:40;16.40;57.80
69595;DHT22;56800;52.142;5.364;2022-10-12T15:23:13;16.40;57.60
69595;DHT22;56800;52.142;5.364;2022-10-12T15:25:50;16.40;57.60
69595;DHT22;56800;52.142;5.364;2022-10-12T15:28:17;16.40;57.70
69595;DHT22;56800;52.142;5.364;2022-10-12T15:30:43;16.40;57.70
69595;DHT22;56800;52.142;5.364;2022-10-12T15:33:30;16.40;57.60
69595;DHT22;56800;52.142;5.364;2022-10-12T15:35:57;16.40;58.00
69595;DHT22;56800;52.142;5.364;2022-10-12T15:38:24;16.40;58.00
69595;DHT22;56800;52.142;5.364;2022-10-12T15:40:50;16.40;57.90
69595;DHT22;56800;52.142;5.364;2022-10-12T15:43:18;16.40;57.80
69595;DHT22;56800;52.142;5.364;2022-10-12T15:45:45;16.40;57.90
69595;DHT22;56800;52.142;5.364;2022-10-12T15:48:12;16.40;57.70
69595;DHT22;56800;52.142;5.364;2022-10-12T15:50:47;16.40;57.60
69595;DHT22;56800;52.142;5.364;2022-10-12T15:53:20;16.40;57.60
69595;DHT22;56800;52.142;5.364;2022-10-12T15:55:50;16.40;57.70
69595;DHT22;56800;52.142;5.364;2022-10-12T15:58:17;16.40;57.80
69595;DHT22;56800;52.142;5.364;2022-10-12T16:00:43;16.40;57.90
69595;DHT22;56800;52.142;5.364;2022-10-12T16:03:14;16.40;57.90
69595;DHT22;56800;52.142;5.364;2022-10-12T16:05:46;16.40;58.00
69595;DHT22;56800;52.142;5.364;2022-10-12T16:08:13;16.30;57.90
69595;DHT22;56800;52.142;5.364;2022-10-12T16:10:41;16.30;58.10
69595;DHT22;56800;52.142;5.364;2022-10-12T16:13:10;16.30;58.10
69595;DHT22;56800;52.142;5.364;2022-10-12T16:15:38;16.20;58.40
69595;DHT22;56800;52.142;5.364;2022-10-12T16:18:05;16.10;58.50
69595;DHT22;56800;52.142;5.364;2022-10-12T16:20:34;16.10;58.80
69595;DHT22;56800;52.142;5.364;2022-10-12T16:23:05;16.10;58.90
69595;DHT22;56800;52.142;5.364;2022-10-12T16:25:33;16.00;59.10
69595;DHT22;56800;52.142;5.364;2022-10-12T16:28:00;16.00;59.10
69595;DHT22;56800;52.142;5.364;2022-10-12T16:30:27;15.90;59.40
69595;DHT22;56800;52.142;5.364;2022-10-12T16:32:54;15.90;59.70
69595;DHT22;56800;52.142;5.364;2022-10-12T16:35:20;15.90;59.90
69595;DHT22;56800;52.142;5.364;2022-10-12T16:37:47;15.80;60.00
69595;DHT22;56800;52.142;5.364;2022-10-12T16:40:14;15.70;60.10
69595;DHT22;56800;52.142;5.364;2022-10-12T16:42:41;15.70;60.30
69595;DHT22;56800;52.142;5.364;2022-10-12T16:45:08;15.60;60.40
69595;DHT22;56800;52.142;5.364;2022-10-12T16:47:37;15.60;60.60
69595;DHT22;56800;52.142;5.364;2022-10-12T16:50:08;15.40;60.70
69595;DHT22;56800;52.142;5.364;2022-10-12T16:52:35;15.30;61.00
69595;DHT22;56800;52.142;5.364;2022-10-12T16:55:02;15.20;61.20
69595;DHT22;56800;52.142;5.364;2022-10-12T16:57:29;15.20;61.50
69595;DHT22;56800;52.142;5.364;2022-10-12T16:59:56;15.10;62.50
69595;DHT22;56800;52.142;5.364;2022-10-12T17:02:24;14.90;61.90
69595;DHT22;56800;52.142;5.364;2022-10-12T17:04:50;14.90;62.10
69595;DHT22;56800;52.142;5.364;2022-10-12T17:07:17;14.80;62.30
69595;DHT22;56800;52.142;5.364;2022-10-12T17:09:44;14.70;62.50
69595;DHT22;56800;52.142;5.364;2022-10-12T17:12:11;14.60;62.70
69595;DHT22;56800;52.142;5.364;2022-10-12T17:14:39;14.60;62.80
69595;DHT22;56800;52.142;5.364;2022-10-12T17:17:05;14.50;63.00
69595;DHT22;56800;52.142;5.364;2022-10-12T17:19:36;14.40;63.20
69595;DHT22;56800;52.142;5.364;2022-10-12T17:22:07;14.40;63.20
69595;DHT22;56800;52.142;5.364;2022-10-12T17:24:36;14.30;63.40
69595;DHT22;56800;52.142;5.364;2022-10-12T17:27:04;14.20;63.70
69595;DHT22;56800;52.142;5.364;2022-10-12T17:29:32;14.10;63.80
69595;DHT22;56800;52.142;5.364;2022-10-12T17:32:02;14.10;64.00
69595;DHT22;56800;52.142;5.364;2022-10-12T17:34:32;14.00;64.10
69595;DHT22;56800;52.142;5.364;2022-10-12T17:37:00;14.00;64.20
69595;DHT22;56800;52.142;5.364;2022-10-12T17:39:30;13.90;64.30
69595;DHT22;56800;52.142;5.364;2022-10-12T17:41:57;13.90;64.50
69595;DHT22;56800;52.142;5.364;2022-10-12T17:44:24;13.80;64.40
69595;DHT22;56800;52.142;5.364;2022-10-12T17:46:51;13.80;64.50
69595;DHT22;56800;52.142;5.364;2022-10-12T17:49:19;13.80;64.60
69595;DHT22;56800;52.142;5.364;2022-10-12T17:51:50;13.70;64.70
69595;DHT22;56800;52.142;5.364;2022-10-12T17:54:17;13.70;64.80